createdAt,value
2017-01-15T00:00:28.714Z,91.01
2017-01-15T00:01:17.728Z,91.01
2017-01-15T00:02:00.915Z,91.05
2017-01-15T00:02:47.823Z,90.86
2017-01-15T00:03:32.837Z,91.34
2017-01-15T00:05:56.537Z,91.15
2017-01-15T00:06:39.308Z,91.15
2017-01-15T00:07:22.493Z,91.34
2017-01-15T00:08:07.313Z,91.81
2017-01-15T00:08:49.304Z,91.62
2017-01-15T00:09:32.408Z,91.53
2017-01-15T00:10:13.397Z,91.43
2017-01-15T00:10:57.308Z,91.62
2017-01-15T00:11:41.434Z,91.53
2017-01-15T00:12:22.582Z,91.34
2017-01-15T00:13:05.041Z,91.53
2017-01-15T00:13:45.506Z,91.62
2017-01-15T00:15:33.822Z,91.53
2017-01-15T00:16:14.923Z,91.34
2017-01-15T00:17:08.607Z,91.43
2017-01-15T00:18:00.895Z,91.43
2017-01-15T00:18:41.903Z,91.34
2017-01-15T00:19:24.802Z,91.72
2017-01-15T00:20:10.119Z,92
2017-01-15T00:20:51.409Z,91.91
2017-01-15T00:21:37.108Z,91.91
2017-01-15T00:22:20.142Z,91.81
2017-01-15T00:23:00.604Z,91.72
2017-01-15T00:23:42.953Z,91.81
2017-01-15T00:24:26.121Z,91.53
2017-01-15T00:25:08.335Z,91.91
2017-01-15T00:25:53.120Z,91.91
2017-01-15T00:26:38.111Z,91.91
2017-01-15T00:27:19.427Z,91.81
2017-01-15T00:28:02.632Z,91.81
2017-01-15T00:28:45.631Z,92
2017-01-15T00:29:29.714Z,91.91
2017-01-15T00:30:14.715Z,91.91
2017-01-15T00:30:55.244Z,91.91
2017-01-15T00:31:36.380Z,91.81
2017-01-15T00:32:16.849Z,92
2017-01-15T00:33:00.174Z,91.72
2017-01-15T00:35:16.139Z,91.81
2017-01-15T00:35:57.142Z,91.72
2017-01-15T00:36:44.268Z,91.72
2017-01-15T00:37:29.278Z,92
2017-01-15T00:38:11.357Z,92.19
2017-01-15T00:38:52.783Z,91.81
2017-01-15T00:39:37.951Z,91.91
2017-01-15T00:40:19.263Z,92
2017-01-15T00:41:00.267Z,91.62
2017-01-15T00:41:47.310Z,91.62
2017-01-15T00:42:27.772Z,92
2017-01-15T00:43:08.944Z,91.72
2017-01-15T00:43:50.043Z,92.1
2017-01-15T00:44:32.022Z,91.91
2017-01-15T00:45:14.272Z,91.81
2017-01-15T00:45:55.548Z,92
2017-01-15T00:46:38.465Z,91.34
2017-01-15T00:47:18.935Z,91.53
2017-01-15T00:48:00.766Z,91.43
2017-01-15T00:48:44.772Z,91.62
2017-01-15T00:49:27.779Z,91.53
2017-01-15T00:51:50.583Z,91.43
2017-01-15T00:52:32.629Z,91.15
2017-01-15T00:54:55.644Z,91.24
2017-01-15T00:55:36.775Z,91.15
2017-01-15T00:56:19.640Z,90.77
2017-01-15T00:57:02.608Z,91.05
2017-01-15T00:57:50.600Z,91.24
2017-01-15T00:58:31.801Z,90.77
2017-01-15T00:59:18.730Z,90.68
2017-01-15T01:00:00.608Z,90.68
2017-01-15T01:00:41.824Z,90.68
2017-01-15T01:01:22.786Z,90.58
2017-01-15T01:02:06.627Z,90.86
2017-01-15T01:02:49.639Z,91.05
2017-01-15T01:03:30.611Z,90.58
2017-01-15T01:04:16.626Z,90.68
2017-01-15T01:04:59.602Z,90.2
2017-01-15T01:05:55.779Z,90.2
2017-01-15T01:06:37.974Z,90.01
2017-01-15T01:07:19.878Z,89.83
2017-01-15T01:08:03.619Z,89.83
2017-01-15T01:11:59.443Z,89.73
2017-01-15T01:12:40.524Z,89.83
2017-01-15T01:13:24.514Z,89.36
2017-01-15T01:14:10.553Z,88.98
2017-01-15T01:14:51.895Z,89.07
2017-01-15T01:15:35.007Z,89.07
2017-01-15T01:16:18.216Z,89.07
2017-01-15T01:17:00.635Z,89.26
2017-01-15T01:17:42.777Z,88.98
2017-01-15T01:18:27.525Z,88.79
2017-01-15T01:19:09.647Z,88.6
2017-01-15T01:19:51.822Z,89.17
2017-01-15T01:20:52.524Z,89.26
2017-01-15T01:21:39.519Z,89.26
2017-01-15T01:22:21.772Z,89.31
2017-01-15T01:23:17.531Z,89.02
2017-01-15T01:24:03.519Z,88.69
2017-01-15T01:26:20.759Z,88.83
2017-01-15T01:27:02.607Z,88.64
2017-01-15T01:27:44.589Z,87.98
2017-01-15T01:28:31.717Z,88.55
2017-01-15T01:29:16.795Z,87.79
2017-01-15T01:30:00.629Z,88.07
2017-01-15T01:30:41.700Z,87.98
2017-01-15T01:31:34.882Z,88.36
2017-01-15T01:32:21.893Z,88.17
2017-01-15T01:33:03.863Z,87.79
2017-01-15T01:33:47.805Z,87.79
2017-01-15T01:34:41.800Z,88.17
2017-01-15T01:37:03.293Z,87.93
2017-01-15T01:37:44.482Z,88.17
2017-01-15T01:38:26.691Z,87.98
2017-01-15T01:39:07.196Z,88.17
2017-01-15T01:39:49.368Z,88.17
2017-01-15T01:40:29.895Z,87.84
2017-01-15T01:41:13.876Z,88.36
2017-01-15T01:41:56.935Z,88.55
2017-01-15T01:42:40.796Z,88.36
2017-01-15T01:43:21.930Z,87.88
2017-01-15T01:44:05.690Z,87.7
2017-01-15T01:46:21.384Z,87.6
2017-01-15T01:47:10.548Z,88.07
2017-01-15T01:49:31.633Z,87.7
2017-01-15T01:50:14.624Z,87.88
2017-01-15T01:50:56.526Z,88.07
2017-01-15T01:51:40.521Z,87.32
2017-01-15T01:52:21.692Z,87.32
2017-01-15T01:53:04.898Z,87.32
2017-01-15T01:53:52.618Z,87.88
2017-01-15T01:54:34.616Z,87.6
2017-01-15T01:55:17.527Z,86.85
2017-01-15T01:55:58.789Z,87.32
2017-01-15T01:56:51.040Z,87.04
2017-01-15T01:57:34.025Z,87.23
2017-01-15T01:58:30.121Z,87.6
2017-01-15T02:00:25.832Z,87.13
2017-01-15T02:01:09.801Z,87.04
2017-01-15T02:01:53.900Z,87.23
2017-01-15T02:02:36.061Z,87.23
2017-01-15T02:03:19.912Z,87.41
2017-01-15T02:04:01.162Z,87.41
2017-01-15T02:04:44.802Z,87.04
2017-01-15T02:05:35.006Z,87.51
2017-01-15T02:06:18.299Z,87.41
2017-01-15T02:06:58.822Z,87.23
2017-01-15T02:07:42.809Z,87.32
2017-01-15T02:08:23.984Z,87.04
2017-01-15T02:09:06.921Z,86.85
2017-01-15T02:09:48.995Z,87.04
2017-01-15T02:10:30.003Z,86.99
2017-01-15T02:11:12.064Z,87.55
2017-01-15T02:11:54.217Z,87.27
2017-01-15T02:12:36.002Z,87.27
2017-01-15T02:13:19.166Z,87.37
2017-01-15T02:14:02.530Z,87.55
2017-01-15T02:14:45.324Z,87.65
2017-01-15T02:15:32.319Z,87.46
2017-01-15T02:16:14.327Z,87.46
2017-01-15T02:16:56.587Z,87.37
2017-01-15T02:17:39.335Z,87.46
2017-01-15T02:18:21.612Z,87.37
2017-01-15T02:19:04.605Z,87.74
2017-01-15T02:19:49.408Z,87.84
2017-01-15T02:20:35.417Z,87.93
2017-01-15T02:21:16.698Z,88.03
2017-01-15T02:21:59.834Z,87.84
2017-01-15T02:22:40.357Z,87.65
2017-01-15T02:23:25.423Z,87.74
2017-01-15T02:24:05.903Z,87.74
2017-01-15T02:24:49.811Z,88.12
2017-01-15T02:25:30.985Z,87.65
2017-01-15T02:26:12.436Z,87.93
2017-01-15T02:26:53.584Z,87.84
2017-01-15T02:27:34.846Z,87.93
2017-01-15T02:28:15.336Z,87.65
2017-01-15T02:28:56.339Z,87.74
2017-01-15T02:29:41.427Z,87.74
2017-01-15T02:30:22.614Z,87.55
2017-01-15T02:31:03.833Z,87.65
2017-01-15T02:31:45.092Z,87.65
2017-01-15T02:32:27.982Z,87.74
2017-01-15T02:33:11.010Z,87.74
2017-01-15T02:33:56.919Z,87.65
2017-01-15T02:34:38.981Z,88.03
2017-01-15T02:35:22.068Z,87.65
2017-01-15T02:36:04.336Z,87.84
2017-01-15T02:36:46.422Z,88.12
2017-01-15T02:37:29.593Z,88.12
2017-01-15T02:38:10.063Z,87.93
2017-01-15T02:38:51.066Z,87.74
2017-01-15T02:39:34.215Z,87.65
2017-01-15T02:40:16.716Z,87.74
2017-01-15T02:40:59.393Z,87.74
2017-01-15T02:41:43.412Z,87.74
2017-01-15T02:42:24.712Z,87.65
2017-01-15T02:43:06.925Z,87.65
2017-01-15T02:43:54.075Z,88.03
2017-01-15T02:44:37.342Z,87.93
2017-01-15T02:45:24.363Z,87.84
2017-01-15T02:46:06.501Z,87.93
2017-01-15T02:46:53.423Z,87.93
2017-01-15T02:47:35.621Z,88.5
2017-01-15T02:48:16.680Z,87.84
2017-01-15T02:49:05.908Z,87.74
2017-01-15T02:49:48.953Z,88.79
2017-01-15T02:50:32.822Z,88.41
2017-01-15T02:51:14.902Z,88.5
2017-01-15T02:51:55.512Z,88.88
2017-01-15T02:52:40.825Z,88.98
2017-01-15T02:53:23.324Z,88.69
2017-01-15T02:54:04.852Z,88.5
2017-01-15T02:54:54.809Z,88.69
2017-01-15T02:55:36.838Z,88.98
2017-01-15T02:56:25.843Z,88.98
2017-01-15T02:57:08.814Z,88.69
2017-01-15T02:57:49.955Z,88.69
2017-01-15T02:58:33.087Z,88.69
2017-01-15T02:59:13.602Z,88.98
2017-01-15T02:59:58.476Z,88.6
2017-01-15T03:00:50.436Z,88.69
2017-01-15T03:01:35.318Z,88.6
2017-01-15T03:02:18.813Z,88.31
2017-01-15T03:03:11.030Z,88.41
2017-01-15T03:04:01.948Z,88.69
2017-01-15T03:04:44.925Z,88.88
2017-01-15T03:05:30.991Z,88.69
2017-01-15T03:06:15.909Z,88.6
2017-01-15T03:07:13.827Z,88.79
2017-01-15T03:07:56.914Z,88.69
2017-01-15T03:08:38.305Z,88.69
2017-01-15T03:09:23.431Z,88.5
2017-01-15T03:10:08.320Z,88.31
2017-01-15T03:10:55.344Z,88.6
2017-01-15T03:11:45.400Z,88.5
2017-01-15T03:12:27.832Z,88.41
2017-01-15T03:13:08.919Z,89.26
2017-01-15T03:13:51.999Z,88.5
2017-01-15T03:14:35.844Z,89.07
2017-01-15T03:15:31.820Z,88.79
2017-01-15T03:16:15.329Z,89.36
2017-01-15T03:16:59.428Z,88.98
2017-01-15T03:17:49.350Z,89.36
2017-01-15T03:18:34.335Z,89.17
2017-01-15T03:19:19.404Z,88.98
2017-01-15T03:20:10.503Z,88.79
2017-01-15T03:20:52.608Z,88.79
2017-01-15T03:21:35.658Z,89.07
2017-01-15T03:22:23.418Z,89.17
2017-01-15T03:23:06.424Z,89.36
2017-01-15T03:25:25.999Z,89.26
2017-01-15T03:26:14.089Z,89.92
2017-01-15T03:27:00.010Z,89.26
2017-01-15T03:27:47.184Z,89.54
2017-01-15T03:28:37.119Z,89.45
2017-01-15T03:29:20.529Z,89.73
2017-01-15T03:30:07.521Z,89.73
2017-01-15T03:30:48.012Z,89.36
2017-01-15T03:31:31.247Z,89.36
2017-01-15T03:32:13.171Z,89.17
2017-01-15T03:33:02.003Z,88.98
2017-01-15T03:33:44.369Z,89.36
2017-01-15T03:34:27.115Z,88.98
2017-01-15T03:35:09.986Z,89.17
2017-01-15T03:37:13.832Z,89.36
2017-01-15T03:37:56.056Z,89.26
2017-01-15T03:38:54.194Z,89.36
2017-01-15T03:39:40.068Z,88.98
2017-01-15T03:40:26.259Z,88.98
2017-01-15T03:41:08.362Z,88.98
2017-01-15T03:41:50.175Z,89.07
2017-01-15T03:42:31.151Z,88.5
2017-01-15T03:43:13.058Z,88.6
2017-01-15T03:44:01.083Z,88.88
2017-01-15T03:44:45.182Z,88.69
2017-01-15T03:45:34.182Z,88.41
2017-01-15T03:46:16.125Z,88.6
2017-01-15T03:46:56.578Z,88.41
2017-01-15T03:47:37.661Z,88.41
2017-01-15T03:48:18.125Z,88.31
2017-01-15T03:48:59.372Z,88.22
2017-01-15T03:49:40.761Z,88.6
2017-01-15T03:50:26.563Z,88.69
2017-01-15T03:51:10.679Z,88.12
2017-01-15T03:53:09.012Z,88.22
2017-01-15T03:53:50.093Z,87.84
2017-01-15T03:54:31.522Z,88.22
2017-01-15T03:55:15.388Z,88.22
2017-01-15T03:55:57.387Z,87.93
2017-01-15T03:56:39.397Z,87.84
2017-01-15T03:57:21.664Z,87.84
2017-01-15T03:58:08.388Z,88.03
2017-01-15T03:58:49.760Z,87.37
2017-01-15T03:59:37.383Z,87.84
2017-01-15T04:00:20.576Z,87.65
2017-01-15T04:01:05.393Z,87.74
2017-01-15T04:01:47.596Z,87.65
2017-01-15T04:02:31.500Z,87.84
2017-01-15T04:03:14.467Z,87.84
2017-01-15T04:03:54.967Z,87.27
2017-01-15T04:04:37.180Z,87.27
2017-01-15T04:05:20.391Z,87.37
2017-01-15T04:06:03.655Z,87.98
2017-01-15T04:06:50.389Z,88.03
2017-01-15T04:07:38.566Z,87.13
2017-01-15T04:08:25.439Z,88.07
2017-01-15T04:09:20.525Z,87.6
2017-01-15T04:10:03.403Z,87.51
2017-01-15T04:10:44.568Z,87.7
2017-01-15T04:11:28.960Z,87.7
2017-01-15T04:14:56.278Z,87.41
2017-01-15T04:15:43.328Z,87.51
2017-01-15T04:16:26.464Z,87.6
2017-01-15T04:17:09.468Z,87.6
2017-01-15T04:17:51.380Z,87.88
2017-01-15T04:18:38.627Z,87.41
2017-01-15T04:19:19.110Z,87.41
2017-01-15T04:20:01.284Z,87.6
2017-01-15T04:20:43.397Z,87.51
2017-01-15T04:21:24.506Z,87.6
2017-01-15T04:22:07.593Z,87.6
2017-01-15T04:22:54.780Z,87.6
2017-01-15T04:23:35.964Z,87.51
2017-01-15T04:24:19.886Z,87.6
2017-01-15T04:25:06.775Z,87.79
2017-01-15T04:25:48.790Z,87.6
2017-01-15T04:26:29.795Z,87.6
2017-01-15T04:27:12.970Z,87.6
2017-01-15T04:27:55.779Z,87.79
2017-01-15T04:28:41.777Z,87.23
2017-01-15T04:29:24.967Z,87.32
2017-01-15T04:30:06.294Z,87.79
2017-01-15T04:30:48.465Z,87.98
2017-01-15T04:31:31.369Z,87.88
2017-01-15T04:32:12.812Z,87.88
2017-01-15T04:32:55.789Z,87.7
2017-01-15T04:33:38.955Z,87.88
2017-01-15T04:34:19.463Z,87.6
2017-01-15T04:35:00.794Z,87.98
2017-01-15T04:35:51.904Z,87.98
2017-01-15T04:36:35.780Z,88.07
2017-01-15T04:37:19.209Z,87.79
2017-01-15T04:38:00.534Z,87.79
2017-01-15T04:38:50.788Z,87.7
2017-01-15T04:39:32.884Z,88.26
2017-01-15T04:40:16.818Z,87.6
2017-01-15T04:40:58.879Z,87.98
2017-01-15T04:41:41.794Z,88.55
2017-01-15T04:42:25.040Z,88.55
2017-01-15T04:43:09.787Z,88.55
2017-01-15T04:43:52.889Z,88.26
2017-01-15T04:44:45.881Z,88.64
2017-01-15T04:45:28.830Z,88.83
2017-01-15T04:46:11.111Z,88.45
2017-01-15T04:46:56.387Z,88.74
2017-01-15T04:47:40.370Z,88.64
2017-01-15T04:48:21.793Z,88.74
2017-01-15T04:49:02.279Z,88.55
2017-01-15T04:49:43.382Z,88.64
2017-01-15T04:50:24.570Z,88.55
2017-01-15T04:51:06.661Z,88.55
2017-01-15T04:51:50.081Z,88.55
2017-01-15T04:52:30.576Z,89.02
2017-01-15T04:53:15.585Z,89.02
2017-01-15T04:53:58.277Z,89.07
2017-01-15T04:54:39.370Z,89.07
2017-01-15T04:55:23.551Z,89.12
2017-01-15T04:56:04.864Z,89.26
2017-01-15T04:56:45.392Z,89.36
2017-01-15T04:57:39.270Z,89.07
2017-01-15T04:58:22.664Z,88.88
2017-01-15T04:59:04.827Z,88.88
2017-01-15T04:59:47.768Z,89.83
2017-01-15T05:00:28.395Z,89.17
2017-01-15T05:01:10.373Z,89.73
2017-01-15T05:02:07.285Z,89.83
2017-01-15T05:02:50.556Z,89.64
2017-01-15T05:03:33.553Z,89.54
2017-01-15T05:04:17.265Z,89.92
2017-01-15T05:05:01.271Z,89.73
2017-01-15T05:05:42.486Z,89.54
2017-01-15T05:06:34.547Z,89.54
2017-01-15T05:07:15.852Z,89.73
2017-01-15T05:07:58.974Z,89.73
2017-01-15T05:08:39.471Z,89.73
2017-01-15T05:09:28.292Z,89.73
2017-01-15T05:14:02.728Z,89.92
2017-01-15T05:14:43.662Z,89.83
2017-01-15T05:15:25.563Z,89.92
2017-01-15T05:16:13.675Z,90.2
2017-01-15T05:16:57.567Z,90.2
2017-01-15T05:19:18.188Z,90.11
2017-01-15T06:11:01.555Z,90.96
2017-01-15T06:11:43.473Z,90.77
2017-01-15T06:12:26.547Z,91.05
2017-01-15T06:13:07.751Z,91.15
2017-01-15T06:13:49.442Z,90.77
2017-01-15T06:14:31.699Z,90.86
2017-01-15T06:15:13.561Z,91.24
2017-01-15T06:15:55.438Z,91.43
2017-01-15T06:16:38.539Z,91.43
2017-01-15T06:17:23.536Z,91.43
2017-01-15T06:18:10.707Z,91.43
2017-01-15T06:18:52.943Z,91.53
2017-01-15T06:19:37.052Z,91.43
2017-01-15T06:20:20.247Z,91.34
2017-01-15T06:28:29.121Z,91.43
2017-01-15T06:29:15.186Z,91.24
2017-01-15T06:29:56.605Z,91.43
2017-01-15T06:30:37.098Z,91.34
2017-01-15T06:31:18.605Z,91.34
2017-01-15T06:31:59.864Z,91.62
2017-01-15T06:32:41.209Z,91.24
2017-01-15T06:33:23.134Z,91.24
2017-01-15T06:34:10.229Z,91.53
2017-01-15T06:40:18.686Z,90.86
2017-01-15T06:41:00.819Z,91.05
2017-01-15T06:41:42.861Z,90.77
2017-01-15T06:42:25.769Z,90.68
2017-01-15T06:43:22.790Z,90.77
2017-01-15T06:44:03.299Z,90.68
2017-01-15T06:44:47.119Z,90.86
2017-01-15T06:45:28.483Z,90.96
2017-01-15T06:47:16.798Z,90.77
2017-01-15T06:48:08.778Z,90.86
2017-01-15T06:48:50.600Z,90.58
2017-01-15T06:49:34.627Z,90.96
2017-01-15T06:50:16.920Z,90.96
2017-01-15T06:50:58.415Z,90.77
2017-01-15T06:51:42.109Z,91.15
2017-01-15T06:52:34.141Z,91.15
2017-01-15T06:53:33.103Z,91.24
2017-01-15T06:54:18.224Z,91.15
2017-01-15T06:55:00.115Z,91.15
2017-01-15T06:55:40.598Z,91.62
2017-01-15T06:56:25.614Z,91.24
2017-01-15T06:57:07.612Z,91.34
2017-01-15T06:57:50.009Z,91.43
2017-01-15T06:58:32.331Z,91.34
2017-01-15T06:59:22.220Z,91.53
2017-01-15T07:00:12.213Z,91.05
2017-01-15T07:00:56.303Z,91.43
2017-01-15T07:01:37.714Z,91.43
2017-01-15T07:02:25.772Z,91.81
2017-01-15T07:03:26.703Z,91.43
2017-01-15T07:04:10.629Z,91.53
2017-01-15T07:05:15.114Z,91.58
2017-01-15T07:08:37.951Z,91.86
2017-01-15T07:09:19.091Z,91.77
2017-01-15T07:10:01.438Z,92.14
2017-01-15T07:10:43.676Z,91.1
2017-01-15T07:11:24.915Z,91.86
2017-01-15T07:12:06.116Z,91.77
2017-01-15T07:12:47.226Z,91.77
2017-01-15T07:13:30.530Z,91.86
2017-01-15T07:14:13.849Z,91.67
2017-01-15T07:14:57.839Z,91.86
2017-01-15T07:15:42.022Z,91.96
2017-01-15T07:16:23.220Z,91.96
2017-01-15T07:17:18.841Z,91.86
2017-01-15T07:18:02.113Z,91.86
2017-01-15T07:18:55.941Z,91.77
2017-01-15T07:19:37.940Z,92.05
2017-01-15T07:20:23.120Z,92.43
2017-01-15T07:21:06.161Z,92.05
2017-01-15T07:21:57.844Z,92.71
2017-01-15T07:22:39.157Z,92.52
2017-01-15T07:23:22.980Z,92.71
2017-01-15T07:24:05.016Z,92.52
2017-01-15T07:24:47.020Z,92.71
2017-01-15T07:25:28.870Z,92.61
2017-01-15T07:26:12.833Z,92.33
2017-01-15T07:26:55.832Z,92.33
2017-01-15T07:27:39.858Z,92.71
2017-01-15T07:28:23.934Z,92.52
2017-01-15T07:29:05.187Z,92.71
2017-01-15T07:29:48.533Z,92.33
2017-01-15T07:30:33.354Z,92.43
2017-01-15T07:31:33.399Z,92.8
2017-01-15T07:32:28.348Z,92.99
2017-01-15T07:33:11.599Z,92.61
2017-01-15T07:33:53.439Z,92.52
2017-01-15T07:34:41.348Z,92.99
2017-01-15T07:35:28.342Z,92.99
2017-01-15T07:37:17.196Z,92.9
2017-01-15T07:38:00.135Z,92.52
2017-01-15T07:38:40.614Z,92.52
2017-01-15T07:39:21.632Z,92.8
2017-01-15T07:40:02.121Z,92.61
2017-01-15T07:42:21.354Z,92.8
2017-01-15T07:43:02.874Z,92.99
2017-01-15T07:43:45.212Z,92.71
2017-01-15T07:44:25.721Z,92.9
2017-01-15T07:45:09.798Z,92.8
2017-01-15T07:45:51.697Z,92.52
2017-01-15T07:46:49.803Z,92.99
2017-01-15T07:47:39.815Z,92.52
2017-01-15T07:48:21.885Z,92.52
2017-01-15T07:49:04.397Z,92.8
2017-01-15T07:49:48.304Z,92.61
2017-01-15T07:50:28.757Z,92.71
2017-01-15T07:51:11.898Z,92.61
2017-01-15T07:51:53.310Z,92.71
2017-01-15T07:52:34.324Z,92.61
2017-01-15T07:53:15.578Z,92.8
2017-01-15T07:53:56.873Z,92.61
2017-01-15T07:54:41.003Z,92.71
2017-01-15T07:55:22.697Z,92.8
2017-01-15T07:56:07.700Z,92.43
2017-01-15T07:56:50.823Z,92.43
2017-01-15T07:57:31.829Z,92.61
2017-01-15T07:58:15.904Z,92.71
2017-01-15T07:58:58.898Z,92.61
2017-01-15T07:59:48.697Z,92.14
2017-01-15T08:00:52.733Z,92.71
2017-01-15T08:01:34.008Z,92.52
2017-01-15T08:02:15.060Z,92.61
2017-01-15T08:03:01.335Z,92.61
2017-01-15T08:03:42.800Z,92.24
2017-01-15T08:04:31.804Z,92.52
2017-01-15T08:05:24.728Z,92.52
2017-01-15T08:06:05.223Z,92.71
2017-01-15T08:06:48.341Z,92.8
2017-01-15T08:07:35.320Z,92.71
2017-01-15T08:08:19.241Z,92.71
2017-01-15T08:09:03.312Z,92.52
2017-01-15T08:09:55.455Z,92.71
2017-01-15T08:10:39.212Z,92.52
2017-01-15T08:13:00.430Z,92.52
2017-01-15T08:13:56.362Z,92.43
2017-01-15T08:14:37.542Z,92.52
2017-01-15T08:15:19.626Z,92.9
2017-01-15T08:16:00.969Z,92.52
2017-01-15T08:16:43.458Z,92.52
2017-01-15T08:17:24.961Z,92.43
2017-01-15T08:18:07.352Z,92.71
2017-01-15T08:18:50.378Z,92.52
2017-01-15T08:19:35.543Z,92.43
2017-01-15T08:20:16.026Z,92.33
2017-01-15T08:20:56.494Z,92.8
2017-01-15T08:21:38.462Z,92.52
2017-01-15T08:22:20.348Z,92.61
2017-01-15T08:23:02.735Z,92.61
2017-01-15T08:23:52.347Z,92.9
2017-01-15T08:24:37.539Z,92.99
2017-01-15T08:25:21.632Z,92.52
2017-01-15T08:26:05.867Z,92.9
2017-01-15T08:26:49.959Z,92.9
2017-01-15T08:27:41.893Z,92.9
2017-01-15T08:28:26.143Z,92.61
2017-01-15T08:29:10.377Z,92.61
2017-01-15T08:30:04.381Z,92.99
2017-01-15T08:30:57.366Z,92.52
2017-01-15T08:31:39.551Z,92.61
2017-01-15T08:32:22.348Z,92.52
2017-01-15T08:33:06.536Z,92.71
2017-01-15T08:35:21.431Z,92.24
2017-01-15T08:36:01.898Z,92.14
2017-01-15T08:38:20.677Z,92.33
2017-01-15T08:39:01.153Z,92.05
2017-01-15T08:39:46.709Z,91.96
2017-01-15T08:40:32.721Z,91.96
2017-01-15T08:41:13.959Z,91.96
2017-01-15T08:42:02.212Z,92.05
2017-01-15T08:42:49.247Z,92.05
2017-01-15T08:43:31.513Z,92.14
2017-01-15T08:44:27.399Z,92.05
2017-01-15T08:45:19.567Z,92.05
2017-01-15T08:46:18.411Z,91.86
2017-01-15T08:47:04.688Z,91.96
2017-01-15T08:47:49.287Z,91.96
2017-01-15T08:48:32.175Z,91.77
2017-01-15T08:49:17.183Z,91.86
2017-01-15T08:49:59.420Z,91.77
2017-01-15T08:52:16.400Z,91.96
2017-01-15T08:52:58.445Z,91.96
2017-01-15T08:53:41.428Z,91.77
2017-01-15T08:54:23.674Z,91.86
2017-01-15T08:55:04.718Z,92.24
2017-01-15T08:55:45.213Z,91.86
2017-01-15T08:56:28.158Z,92.14
2017-01-15T08:57:12.057Z,91.67
2017-01-15T08:58:03.308Z,91.77
2017-01-15T08:58:45.235Z,91.96
2017-01-15T09:00:46.019Z,91.2
2017-01-15T09:01:28.002Z,91.2
2017-01-15T09:02:14.115Z,91.58
2017-01-15T09:02:56.009Z,91.67
2017-01-15T09:03:40.135Z,91.2
2017-01-15T09:04:21.294Z,91.1
2017-01-15T09:05:08.399Z,91.2
2017-01-15T09:05:52.534Z,91.48
2017-01-15T09:06:35.547Z,90.82
2017-01-15T09:07:19.700Z,90.82
2017-01-15T09:08:11.781Z,90.73
2017-01-15T09:08:52.344Z,91.01
2017-01-15T09:09:37.026Z,90.73
2017-01-15T09:10:17.482Z,90.82
2017-01-15T09:10:59.662Z,90.63
2017-01-15T09:11:40.064Z,90.11
2017-01-15T09:12:21.368Z,90.49
2017-01-15T09:13:02.523Z,90.35
2017-01-15T09:13:45.049Z,89.92
2017-01-15T09:14:28.126Z,90.01
2017-01-15T09:15:10.013Z,89.69
2017-01-15T09:15:50.516Z,89.83
2017-01-15T09:16:33.735Z,89.64
2017-01-15T09:17:15.143Z,89.54
2017-01-15T09:17:59.160Z,89.73
2017-01-15T09:18:43.189Z,89.45
2017-01-15T09:20:32.990Z,89.73
2017-01-15T09:21:14.431Z,89.45
2017-01-15T09:21:55.382Z,89.45
2017-01-15T09:22:35.869Z,89.07
2017-01-15T09:23:17.891Z,88.98
2017-01-15T09:24:01.901Z,88.98
2017-01-15T09:24:42.989Z,88.98
2017-01-15T09:25:23.970Z,88.5
2017-01-15T09:26:06.896Z,88.69
2017-01-15T09:26:49.295Z,88.69
2017-01-15T09:29:04.181Z,88.6
2017-01-15T09:31:18.751Z,88.69
2017-01-15T09:31:59.703Z,88.41
2017-01-15T09:32:49.648Z,88.41
2017-01-15T09:42:25.017Z,88.31
2017-01-15T09:43:07.445Z,87.74
2017-01-15T09:43:48.479Z,87.74
2017-01-15T09:44:39.211Z,87.55
2017-01-15T09:45:21.364Z,87.46
2017-01-15T09:46:02.518Z,87.84
2017-01-15T09:46:45.925Z,88.03
2017-01-15T09:47:27.008Z,87.46
2017-01-15T09:48:08.240Z,87.27
2017-01-15T09:53:34.515Z,86.8
2017-01-15T09:54:15.776Z,86.61
2017-01-15T09:56:42.113Z,86.85
2017-01-15T09:57:30.171Z,86.23
2017-01-15T09:58:18.093Z,86.47
2017-01-15T09:59:00.065Z,86.75
2017-01-15T09:59:48.256Z,86.56
2017-01-15T10:00:37.217Z,86.37
2017-01-15T10:01:19.186Z,86.28
2017-01-15T10:02:06.074Z,87.04
2017-01-15T10:02:49.123Z,86.75
2017-01-15T10:03:32.158Z,85.9
2017-01-15T10:04:21.078Z,86.28
2017-01-15T10:05:04.286Z,86.28
2017-01-15T10:15:09.190Z,85.33
2017-01-15T10:16:58.918Z,85.42
2017-01-15T10:17:43.818Z,85.52
2017-01-15T10:18:33.832Z,85.33
2017-01-15T10:19:15.977Z,85.24
2017-01-15T10:19:58.999Z,84.95
2017-01-15T10:20:47.998Z,84.77
2017-01-15T10:26:20.089Z,84.86
2017-01-15T10:27:08.222Z,84.95
2017-01-15T10:29:24.599Z,84.1
2017-01-15T10:30:14.445Z,85.14
2017-01-15T10:31:07.531Z,84.29
2017-01-15T10:31:58.402Z,84.29
2017-01-15T10:32:45.534Z,84.01
2017-01-15T10:33:31.529Z,83.91
2017-01-15T10:34:17.407Z,83.72
2017-01-15T10:34:59.402Z,83.53
2017-01-15T10:35:54.841Z,83.34
2017-01-15T10:36:43.213Z,83.72
2017-01-15T10:37:31.934Z,83.53
2017-01-15T10:38:19.937Z,83.53
2017-01-15T10:39:07.908Z,83.53
2017-01-15T10:40:13.024Z,83.72
2017-01-15T10:40:57.912Z,83.63
2017-01-15T10:41:43.912Z,83.63
2017-01-15T10:42:28.931Z,83.82
2017-01-15T10:44:23.150Z,83.44
2017-01-15T10:45:10.349Z,83.53
2017-01-15T10:45:57.613Z,83.53
2017-01-15T10:48:21.144Z,82.97
2017-01-15T10:49:02.306Z,82.97
2017-01-15T10:49:55.127Z,82.87
2017-01-15T10:50:43.111Z,82.78
2017-01-15T10:51:24.520Z,82.4
2017-01-15T10:52:12.715Z,82.87
2017-01-15T10:52:53.173Z,82.97
2017-01-15T10:53:39.130Z,82.78
2017-01-15T10:54:22.218Z,82.59
2017-01-15T10:56:46.818Z,82.91
2017-01-15T10:57:28.874Z,82.82
2017-01-15T11:04:00.694Z,81.49
2017-01-15T11:04:43.683Z,81.59
2017-01-15T11:05:29.887Z,80.74
2017-01-15T11:06:11.681Z,80.64
2017-01-15T11:08:24.656Z,80.64
2017-01-15T11:09:06.730Z,81.12
2017-01-15T11:09:47.875Z,81.02
2017-01-15T11:10:29.858Z,80.83
2017-01-15T11:11:12.963Z,80.55
2017-01-15T11:13:14.100Z,81.02
2017-01-15T11:13:59.958Z,81.3
2017-01-15T11:14:41.188Z,80.93
2017-01-15T11:15:22.277Z,81.02
2017-01-15T11:16:02.760Z,81.02
2017-01-15T11:16:46.059Z,80.21
2017-01-15T11:17:36.943Z,79.45
2017-01-15T11:18:17.948Z,79.83
2017-01-15T11:19:06.021Z,78.88
2017-01-15T11:22:58.153Z,78.59
2017-01-15T11:23:40.128Z,78.69
2017-01-15T11:24:22.313Z,78.59
2017-01-15T11:25:04.143Z,78.22
2017-01-15T11:25:47.141Z,77.56
2017-01-15T11:26:30.285Z,77.56
2017-01-15T11:27:17.241Z,77.37
2017-01-15T11:28:01.163Z,77.65
2017-01-15T11:28:41.665Z,77.46
2017-01-15T11:29:26.650Z,77.18
2017-01-15T11:30:08.896Z,77.18
2017-01-15T11:32:09.675Z,77.94
2017-01-15T11:32:58.695Z,77.12
2017-01-15T11:33:41.872Z,77.22
2017-01-15T11:34:23.765Z,77.03
2017-01-15T11:35:06.866Z,76.46
2017-01-15T11:35:47.888Z,76.65
2017-01-15T11:36:36.778Z,77.03
2017-01-15T11:37:21.663Z,77.4
2017-01-15T11:38:03.877Z,77.03
2017-01-15T11:38:50.683Z,76.46
2017-01-15T11:39:38.699Z,76.36
2017-01-15T11:40:19.184Z,75.79
2017-01-15T11:41:00.455Z,76.17
2017-01-15T11:41:42.671Z,76.17
2017-01-15T11:42:24.867Z,76.08
2017-01-15T11:43:07.665Z,76.08
2017-01-15T11:43:50.754Z,75.98
2017-01-15T11:44:33.945Z,75.6
2017-01-15T11:45:15.201Z,75.98
2017-01-15T11:46:04.267Z,75.98
2017-01-15T11:46:55.271Z,76.17
2017-01-15T11:47:37.168Z,76.17
2017-01-15T11:48:21.200Z,75.6
2017-01-15T11:49:04.157Z,75.42
2017-01-15T11:49:49.447Z,75.23
2017-01-15T11:50:35.712Z,74.66
2017-01-15T11:51:18.924Z,74.85
2017-01-15T11:52:02.184Z,74.95
2017-01-15T11:54:03.865Z,74.66
2017-01-15T11:54:47.081Z,74.75
2017-01-15T11:55:28.983Z,75.04
2017-01-15T11:56:12.851Z,74.51
2017-01-15T11:56:55.822Z,74.41
2017-01-15T11:57:43.825Z,74.56
2017-01-15T11:58:24.360Z,74.09
2017-01-15T11:59:08.241Z,74.09
2017-01-15T11:59:50.233Z,74.75
2017-01-15T12:00:33.520Z,74.66
2017-01-15T12:01:19.233Z,74.41
2017-01-15T12:01:59.714Z,74.69
2017-01-15T12:02:40.847Z,74.79
2017-01-15T12:03:22.924Z,74.69
2017-01-15T12:04:05.741Z,74.13
2017-01-15T12:04:46.281Z,74.32
2017-01-15T12:05:26.790Z,74.13
2017-01-15T12:06:09.738Z,74.88
2017-01-15T12:06:50.753Z,74.6
2017-01-15T12:07:31.248Z,74.51
2017-01-15T12:08:12.469Z,74.32
2017-01-15T12:08:55.333Z,73.56
2017-01-15T12:09:39.531Z,74.41
2017-01-15T12:10:21.832Z,73.94
2017-01-15T12:11:02.355Z,73.94
2017-01-15T12:11:43.418Z,73.65
2017-01-15T12:12:30.367Z,74.03
2017-01-15T12:13:11.436Z,74.69
2017-01-15T12:13:57.420Z,72.8